Time;durP1;ratioP1;P1;durP2;ratioP2;P2;SDS_P1;SDS_P2;PMS_P1;PMS_P2;Temp;Humidity;BMP_temperature;BMP_pressure;BME280_temperature;BME280_humidity;BME280_pressure;Samples;Min_cycle;Max_cycle;Signal;HPM_P1;HPM_P2
2022/07/03 00:00:18;;;;;;;;;;;27.30;99.90;;;;;;5096421;28;20433;-70
2022/07/03 00:02:43;;;;;;;;;;;27.30;99.90;;;;;;5101265;28;19909;-70
2022/07/03 00:05:09;;;;;;;;;;;27.20;99.90;;;;;;5092699;28;19907;-69
2022/07/03 00:07:36;;;;;;;;;;;27.10;99.90;;;;;;5090874;28;19934;-71
2022/07/03 00:10:01;;;;;;;;;;;27.20;99.90;;;;;;5092649;28;19912;-69
2022/07/03 00:12:30;;;;;;;;;;;27.10;99.90;;;;;;5096691;28;20057;-69
2022/07/03 00:14:56;;;;;;;;;;;27.10;99.90;;;;;;5093088;28;19938;-71
2022/07/03 00:17:22;;;;;;;;;;;27.10;99.90;;;;;;5093271;28;21097;-71
2022/07/03 00:19:48;;;;;;;;;;;27.20;99.90;;;;;;5092042;28;20327;-72
2022/07/03 00:22:13;;;;;;;;;;;27.20;99.90;;;;;;5091693;28;19907;-71
2022/07/03 00:24:52;;;;;;;;;;;27.10;99.90;;;;;;5091743;28;19908;-71
2022/07/03 00:27:19;;;;;;;;;;;27.10;99.90;;;;;;5100945;28;19931;-70
2022/07/03 00:29:45;;;;;;;;;;;27.10;99.90;;;;;;5111978;28;19907;-70
2022/07/03 00:32:18;;;;;;;;;;;27.10;99.90;;;;;;5110845;28;19988;-70
2022/07/03 00:34:46;;;;;;;;;;;27.20;99.90;;;;;;5108267;28;20388;-71
2022/07/03 00:37:11;;;;;;;;;;;27.10;99.90;;;;;;5106332;28;19912;-70
2022/07/03 00:39:38;;;;;;;;;;;27.10;99.90;;;;;;5106321;28;19912;-69
2022/07/03 00:42:04;;;;;;;;;;;27.00;99.90;;;;;;5110480;28;19908;-70
2022/07/03 00:44:32;;;;;;;;;;;27.10;99.90;;;;;;5115262;28;19908;-72
2022/07/03 00:46:58;;;;;;;;;;;27.00;99.90;;;;;;5118461;28;19916;-71
2022/07/03 00:49:24;;;;;;;;;;;27.00;99.90;;;;;;5116353;28;19933;-70
2022/07/03 00:51:52;;;;;;;;;;;27.00;99.90;;;;;;5126216;28;19912;-69
2022/07/03 00:54:19;;;;;;;;;;;27.00;99.90;;;;;;5126261;28;19922;-71
2022/07/03 00:56:49;;;;;;;;;;;27.00;99.90;;;;;;5130484;28;19922;-71
2022/07/03 00:59:14;;;;;;;;;;;27.10;99.90;;;;;;5124471;28;20311;-70
2022/07/03 01:01:40;;;;;;;;;;;26.90;99.90;;;;;;5114938;28;19904;-70
2022/07/03 01:04:12;;;;;;;;;;;26.80;99.90;;;;;;5111786;28;19933;-70
2022/07/03 01:06:40;;;;;;;;;;;26.80;99.90;;;;;;5114856;28;19910;-69
2022/07/03 01:09:06;;;;;;;;;;;26.80;99.90;;;;;;5109843;28;20315;-69
2022/07/03 01:11:43;;;;;;;;;;;26.70;99.90;;;;;;5110794;27;20004;-70
2022/07/03 01:14:18;;;;;;;;;;;26.80;99.90;;;;;;5113386;28;19911;-71
2022/07/03 01:17:06;;;;;;;;;;;26.70;99.90;;;;;;5120479;28;19907;-71
2022/07/03 01:19:42;;;;;;;;;;;26.70;99.90;;;;;;5112647;28;19915;-71
2022/07/03 01:22:40;;;;;;;;;;;26.70;99.90;;;;;;5096816;28;20008;-71
2022/07/03 01:25:13;;;;;;;;;;;26.70;99.90;;;;;;5076209;28;19907;-70
2022/07/03 01:27:38;;;;;;;;;;;26.70;99.90;;;;;;5094002;28;19916;-71
2022/07/03 01:30:10;;;;;;;;;;;26.60;99.90;;;;;;5089357;28;19908;-69
2022/07/03 01:32:42;;;;;;;;;;;26.80;99.90;;;;;;5089376;28;19915;-70
2022/07/03 01:35:08;;;;;;;;;;;26.70;99.90;;;;;;5091811;28;19919;-71
2022/07/03 01:37:34;;;;;;;;;;;26.70;99.90;;;;;;5094033;28;19907;-71
2022/07/03 01:40:01;;;;;;;;;;;26.70;99.90;;;;;;5088727;28;20535;-70
2022/07/03 01:42:28;;;;;;;;;;;26.80;99.90;;;;;;5095092;28;20314;-71
2022/07/03 01:44:54;;;;;;;;;;;26.70;99.90;;;;;;5092640;28;19907;-70
2022/07/03 01:47:22;;;;;;;;;;;26.70;99.90;;;;;;5096453;28;19934;-71
2022/07/03 01:49:49;;;;;;;;;;;26.60;99.90;;;;;;5096058;28;19914;-69
2022/07/03 01:52:15;;;;;;;;;;;26.60;99.90;;;;;;5092119;28;19912;-69
2022/07/03 01:54:42;;;;;;;;;;;26.60;99.90;;;;;;5102052;28;19926;-71
2022/07/03 01:57:08;;;;;;;;;;;26.50;99.90;;;;;;5090296;28;19987;-71
2022/07/03 01:59:35;;;;;;;;;;;26.50;99.90;;;;;;5094478;28;19976;-71
2022/07/03 02:02:08;;;;;;;;;;;26.50;99.90;;;;;;5103487;28;19961;-72
2022/07/03 02:04:43;;;;;;;;;;;26.40;99.90;;;;;;5096636;28;19923;-72
2022/07/03 02:07:12;;;;;;;;;;;26.40;99.90;;;;;;5094947;28;19916;-70
2022/07/03 02:09:44;;;;;;;;;;;26.30;99.90;;;;;;5095863;28;19908;-70
2022/07/03 02:12:11;;;;;;;;;;;26.30;99.90;;;;;;5089729;28;19911;-69
2022/07/03 02:14:39;;;;;;;;;;;26.30;99.90;;;;;;5087437;28;19938;-71
2022/07/03 02:17:11;;;;;;;;;;;26.20;99.90;;;;;;5098240;28;19950;-71
2022/07/03 02:19:49;;;;;;;;;;;26.30;99.90;;;;;;5088753;28;19907;-70
2022/07/03 02:22:17;;;;;;;;;;;26.20;99.90;;;;;;5090050;28;19908;-70
2022/07/03 02:24:46;;;;;;;;;;;26.20;99.90;;;;;;5087087;28;19916;-70
2022/07/03 02:27:23;;;;;;;;;;;26.20;99.90;;;;;;5099269;28;20003;-70
2022/07/03 02:29:51;;;;;;;;;;;26.10;99.90;;;;;;5087310;28;19908;-70
2022/07/03 02:32:21;;;;;;;;;;;26.10;99.90;;;;;;5104895;28;19907;-69
2022/07/03 02:34:49;;;;;;;;;;;26.20;99.90;;;;;;5086176;28;19912;-70
2022/07/03 02:37:19;;;;;;;;;;;26.10;99.90;;;;;;5089505;28;19915;-70
2022/07/03 02:39:52;;;;;;;;;;;26.10;99.90;;;;;;5087908;28;19908;-71
2022/07/03 02:42:30;;;;;;;;;;;26.00;99.90;;;;;;5105347;28;20358;-71
2022/07/03 02:44:57;;;;;;;;;;;26.00;99.90;;;;;;5086442;28;20361;-71
2022/07/03 02:47:43;;;;;;;;;;;26.00;99.90;;;;;;5093902;28;19908;-70
2022/07/03 02:50:15;;;;;;;;;;;26.00;99.90;;;;;;5101479;28;19908;-71
2022/07/03 02:52:46;;;;;;;;;;;26.00;99.90;;;;;;5103400;28;19931;-71
2022/07/03 02:55:24;;;;;;;;;;;25.90;99.90;;;;;;5108720;28;20401;-73
2022/07/03 02:57:55;;;;;;;;;;;25.80;99.90;;;;;;5109392;28;19981;-70
2022/07/03 03:00:22;;;;;;;;;;;25.80;99.90;;;;;;5110982;28;19942;-71
2022/07/03 03:02:53;;;;;;;;;;;25.70;99.90;;;;;;5112479;28;19981;-71
2022/07/03 03:05:19;;;;;;;;;;;25.70;99.90;;;;;;5112178;28;19904;-71
2022/07/03 03:08:00;;;;;;;;;;;25.60;99.90;;;;;;5113164;28;19903;-71
2022/07/03 03:10:25;;;;;;;;;;;25.70;99.90;;;;;;5107084;28;19908;-71
2022/07/03 03:12:55;;;;;;;;;;;25.70;99.90;;;;;;5113508;28;20010;-72
2022/07/03 03:15:24;;;;;;;;;;;25.70;99.90;;;;;;5114035;28;19908;-71
2022/07/03 03:17:53;;;;;;;;;;;25.70;99.90;;;;;;5114397;28;19904;-69
2022/07/03 03:20:22;;;;;;;;;;;25.60;99.90;;;;;;5111789;28;19904;-71
2022/07/03 03:22:51;;;;;;;;;;;25.60;99.90;;;;;;5103448;28;20265;-71
2022/07/03 03:25:16;;;;;;;;;;;25.50;99.90;;;;;;5104974;28;19939;-70
2022/07/03 03:27:42;;;;;;;;;;;25.50;99.90;;;;;;5102156;28;19983;-70
2022/07/03 03:30:08;;;;;;;;;;;25.50;99.90;;;;;;5094272;28;20348;-71
2022/07/03 03:32:34;;;;;;;;;;;25.50;99.90;;;;;;5098010;28;19907;-71
2022/07/03 03:35:00;;;;;;;;;;;25.40;99.90;;;;;;5100872;28;19912;-70
2022/07/03 03:37:26;;;;;;;;;;;25.50;99.90;;;;;;5095077;28;19908;-70
2022/07/03 03:39:52;;;;;;;;;;;25.50;99.90;;;;;;5088328;28;19952;-70
2022/07/03 03:42:17;;;;;;;;;;;25.50;99.90;;;;;;5091953;28;20487;-71
2022/07/03 03:44:43;;;;;;;;;;;25.50;99.90;;;;;;5090393;28;19940;-71
2022/07/03 03:47:09;;;;;;;;;;;25.50;99.90;;;;;;5096761;28;19908;-70
2022/07/03 03:49:34;;;;;;;;;;;25.50;99.90;;;;;;5097894;28;19908;-70
2022/07/03 03:52:00;;;;;;;;;;;25.50;99.90;;;;;;5096193;28;20006;-71
2022/07/03 03:54:26;;;;;;;;;;;25.60;99.90;;;;;;5091439;28;20384;-70
2022/07/03 03:56:51;;;;;;;;;;;25.60;99.90;;;;;;5091971;28;20033;-72
2022/07/03 03:59:17;;;;;;;;;;;25.60;99.90;;;;;;5090605;28;19957;-70
2022/07/03 04:01:42;;;;;;;;;;;25.50;99.90;;;;;;5091578;28;19915;-71
2022/07/03 04:04:08;;;;;;;;;;;25.60;99.90;;;;;;5091732;28;19915;-71
2022/07/03 04:06:34;;;;;;;;;;;25.60;99.90;;;;;;5088315;28;19961;-71
2022/07/03 04:08:59;;;;;;;;;;;25.60;99.90;;;;;;5094318;28;19908;-70
2022/07/03 04:11:25;;;;;;;;;;;25.60;99.90;;;;;;5090983;28;19954;-70
2022/07/03 04:13:50;;;;;;;;;;;25.50;99.90;;;;;;5090020;28;19937;-71
2022/07/03 04:16:16;;;;;;;;;;;25.50;99.90;;;;;;5089996;28;20011;-72
2022/07/03 04:18:42;;;;;;;;;;;25.70;99.90;;;;;;5100479;28;20026;-70
2022/07/03 04:21:08;;;;;;;;;;;25.60;99.90;;;;;;5091312;28;20399;-71
2022/07/03 04:23:33;;;;;;;;;;;25.70;99.90;;;;;;5094204;28;19908;-71
2022/07/03 04:26:03;;;;;;;;;;;25.80;99.90;;;;;;5091148;28;19923;-72
2022/07/03 04:28:29;;;;;;;;;;;25.80;99.90;;;;;;5093696;28;19949;-71
2022/07/03 04:30:54;;;;;;;;;;;25.70;99.90;;;;;;5107034;28;19911;-72
2022/07/03 04:33:20;;;;;;;;;;;25.70;99.90;;;;;;5089906;28;19915;-71
2022/07/03 04:35:46;;;;;;;;;;;25.80;99.90;;;;;;5090472;28;19911;-71
2022/07/03 04:38:11;;;;;;;;;;;25.80;99.90;;;;;;5091505;28;19964;-71
2022/07/03 04:40:37;;;;;;;;;;;25.90;99.90;;;;;;5090056;28;19919;-71
2022/07/03 04:43:02;;;;;;;;;;;25.90;99.90;;;;;;5089310;28;19935;-70
2022/07/03 04:45:28;;;;;;;;;;;25.90;99.90;;;;;;5093911;28;19961;-70
2022/07/03 04:47:54;;;;;;;;;;;25.90;99.90;;;;;;5089304;28;19912;-72
2022/07/03 04:50:19;;;;;;;;;;;26.00;99.90;;;;;;5090373;28;20357;-71
2022/07/03 04:52:45;;;;;;;;;;;26.00;99.90;;;;;;5110305;28;19908;-71
2022/07/03 04:55:12;;;;;;;;;;;26.00;99.90;;;;;;5112405;28;20479;-72
2022/07/03 04:57:37;;;;;;;;;;;26.00;99.90;;;;;;5111092;28;19903;-71
2022/07/03 05:00:04;;;;;;;;;;;26.10;99.90;;;;;;5110943;28;19957;-71
2022/07/03 05:02:30;;;;;;;;;;;26.10;99.90;;;;;;5109995;28;19907;-70
2022/07/03 05:04:55;;;;;;;;;;;26.10;99.90;;;;;;5110139;28;19911;-71
2022/07/03 05:07:31;;;;;;;;;;;26.10;99.90;;;;;;5113427;27;19916;-71
2022/07/03 05:09:58;;;;;;;;;;;26.20;99.90;;;;;;5122007;27;19999;-71
2022/07/03 05:12:24;;;;;;;;;;;26.20;99.90;;;;;;5110000;28;19951;-72
2022/07/03 05:14:49;;;;;;;;;;;26.20;99.90;;;;;;5109234;28;19965;-71
2022/07/03 05:17:16;;;;;;;;;;;26.30;99.90;;;;;;5110064;28;19985;-69
2022/07/03 05:19:42;;;;;;;;;;;26.30;99.90;;;;;;5099000;28;20014;-69
2022/07/03 05:22:07;;;;;;;;;;;26.40;99.90;;;;;;5109119;28;19994;-70
2022/07/03 05:24:33;;;;;;;;;;;26.30;99.90;;;;;;5108489;28;20361;-70
2022/07/03 05:26:59;;;;;;;;;;;26.30;99.90;;;;;;5111778;28;19904;-71
2022/07/03 05:29:24;;;;;;;;;;;26.30;99.90;;;;;;5111888;28;19915;-71
2022/07/03 05:31:50;;;;;;;;;;;26.50;99.90;;;;;;5110918;28;20266;-69
2022/07/03 05:34:15;;;;;;;;;;;26.60;99.90;;;;;;5112212;28;19914;-71
2022/07/03 05:36:41;;;;;;;;;;;26.60;99.90;;;;;;5099408;28;19994;-70
2022/07/03 05:41:51;;;;;;;;;;;26.70;99.90;;;;;;5098582;28;19918;-72
2022/07/03 05:44:16;;;;;;;;;;;26.70;99.90;;;;;;5106590;28;19907;-70
2022/07/03 05:46:42;;;;;;;;;;;26.80;99.90;;;;;;5110900;28;20387;-69
2022/07/03 05:49:07;;;;;;;;;;;26.90;99.90;;;;;;5111819;28;19905;-70
2022/07/03 05:51:40;;;;;;;;;;;26.90;99.90;;;;;;5110948;28;20437;-75
2022/07/03 05:54:06;;;;;;;;;;;26.90;99.90;;;;;;5112473;28;20061;-69
2022/07/03 05:56:31;;;;;;;;;;;27.00;99.90;;;;;;5110962;28;20383;-71
2022/07/03 05:58:57;;;;;;;;;;;27.10;99.90;;;;;;5110576;28;19992;-69
2022/07/03 06:01:23;;;;;;;;;;;27.20;99.90;;;;;;5095940;28;19904;-70
2022/07/03 06:03:49;;;;;;;;;;;27.30;99.90;;;;;;5112642;28;19925;-70
2022/07/03 06:06:15;;;;;;;;;;;27.20;99.90;;;;;;5112934;28;19912;-69
2022/07/03 06:08:40;;;;;;;;;;;27.30;99.90;;;;;;5110948;28;19915;-71
2022/07/03 06:11:06;;;;;;;;;;;27.40;99.90;;;;;;5109671;28;20285;-70
2022/07/03 06:13:31;;;;;;;;;;;27.40;99.90;;;;;;5111374;28;20579;-71
2022/07/03 06:15:57;;;;;;;;;;;27.40;99.90;;;;;;5112047;28;19911;-71
2022/07/03 06:18:23;;;;;;;;;;;27.50;99.90;;;;;;5111489;28;19926;-71
2022/07/03 06:20:48;;;;;;;;;;;27.50;99.90;;;;;;5109921;28;20357;-68
2022/07/03 06:23:14;;;;;;;;;;;27.50;99.90;;;;;;5109842;28;19910;-72
2022/07/03 06:25:39;;;;;;;;;;;27.60;99.90;;;;;;5109829;28;19904;-69
2022/07/03 06:28:05;;;;;;;;;;;27.70;99.90;;;;;;5109730;28;19904;-72
2022/07/03 06:30:31;;;;;;;;;;;27.70;99.90;;;;;;5097198;28;19923;-69
2022/07/03 06:32:56;;;;;;;;;;;27.80;99.90;;;;;;5104219;28;19916;-73
2022/07/03 06:35:22;;;;;;;;;;;27.80;99.90;;;;;;5104332;28;20269;-70
2022/07/03 06:37:47;;;;;;;;;;;27.90;99.90;;;;;;5109598;28;19904;-73
2022/07/03 06:40:13;;;;;;;;;;;28.00;99.90;;;;;;5104600;28;20561;-70
2022/07/03 06:42:39;;;;;;;;;;;28.10;99.90;;;;;;5105179;28;19908;-70
2022/07/03 06:45:05;;;;;;;;;;;28.20;99.90;;;;;;5111090;28;19919;-70
2022/07/03 06:47:30;;;;;;;;;;;28.30;99.90;;;;;;5106952;28;19908;-70
2022/07/03 06:49:56;;;;;;;;;;;28.30;99.90;;;;;;5102090;28;19915;-72
2022/07/03 06:52:21;;;;;;;;;;;28.30;99.90;;;;;;5106736;28;20415;-70
2022/07/03 06:54:47;;;;;;;;;;;28.30;99.90;;;;;;5100274;28;19920;-70
2022/07/03 06:57:13;;;;;;;;;;;28.40;99.90;;;;;;5107069;28;20411;-73
2022/07/03 06:59:39;;;;;;;;;;;28.40;99.90;;;;;;5107580;28;20008;-72
2022/07/03 07:02:05;;;;;;;;;;;28.50;99.90;;;;;;5104680;28;19994;-74
2022/07/03 07:04:31;;;;;;;;;;;28.60;99.90;;;;;;5108296;28;19935;-72
2022/07/03 07:06:56;;;;;;;;;;;28.80;99.90;;;;;;5110273;28;19953;-70
2022/07/03 07:09:22;;;;;;;;;;;28.80;99.90;;;;;;5118492;28;19925;-69
2022/07/03 07:11:48;;;;;;;;;;;29.00;99.90;;;;;;5114164;28;19957;-71
2022/07/03 07:14:13;;;;;;;;;;;29.10;99.90;;;;;;5109091;28;20375;-68
2022/07/03 07:16:39;;;;;;;;;;;29.20;99.90;;;;;;5116666;28;19911;-70
2022/07/03 07:19:04;;;;;;;;;;;29.20;99.90;;;;;;5115357;28;19907;-70
2022/07/03 07:21:30;;;;;;;;;;;29.40;99.90;;;;;;5110980;28;19918;-71
2022/07/03 07:23:55;;;;;;;;;;;29.60;99.90;;;;;;5117566;28;19911;-69
2022/07/03 07:26:21;;;;;;;;;;;29.70;99.90;;;;;;5120273;28;19918;-70
2022/07/03 07:28:46;;;;;;;;;;;29.90;99.90;;;;;;5116037;28;20430;-69
2022/07/03 07:31:12;;;;;;;;;;;30.10;99.90;;;;;;5107608;28;19912;-71
2022/07/03 07:33:38;;;;;;;;;;;30.20;99.90;;;;;;5105527;28;20384;-73
2022/07/03 07:36:03;;;;;;;;;;;30.40;99.90;;;;;;5097578;28;19959;-69
2022/07/03 07:38:29;;;;;;;;;;;30.20;99.90;;;;;;5107774;28;19911;-70
2022/07/03 07:40:54;;;;;;;;;;;30.10;99.90;;;;;;5107020;28;19908;-68
2022/07/03 07:43:20;;;;;;;;;;;30.10;99.90;;;;;;5103859;28;19916;-68
2022/07/03 07:45:46;;;;;;;;;;;30.10;99.90;;;;;;5107129;28;19923;-69
2022/07/03 07:48:11;;;;;;;;;;;30.00;99.90;;;;;;5108253;28;20368;-69
2022/07/03 07:50:37;;;;;;;;;;;30.10;99.90;;;;;;5114030;28;20329;-67
2022/07/03 07:53:02;;;;;;;;;;;30.30;99.90;;;;;;5103537;28;19912;-70
2022/07/03 07:55:28;;;;;;;;;;;30.40;99.90;;;;;;5113513;28;19908;-66
2022/07/03 07:57:54;;;;;;;;;;;30.30;99.90;;;;;;5114119;28;19912;-69
2022/07/03 08:00:21;;;;;;;;;;;30.40;99.90;;;;;;5111047;28;19907;-68
2022/07/03 08:05:37;;;;;;;;;;;30.30;99.90;;;;;;5109167;28;19952;-69
2022/07/03 08:08:13;;;;;;;;;;;30.10;99.90;;;;;;5109624;28;20257;-69
2022/07/03 08:10:39;;;;;;;;;;;30.20;99.90;;;;;;5111078;28;20424;-70
2022/07/03 08:13:05;;;;;;;;;;;30.30;99.90;;;;;;5106052;28;19908;-72
2022/07/03 08:15:30;;;;;;;;;;;30.40;99.90;;;;;;5108251;28;19999;-69
2022/07/03 08:17:56;;;;;;;;;;;30.50;99.90;;;;;;5105409;28;19908;-68
2022/07/03 08:20:22;;;;;;;;;;;30.60;99.90;;;;;;5108423;28;19926;-70
2022/07/03 08:22:48;;;;;;;;;;;30.60;99.90;;;;;;5110673;28;19908;-69
2022/07/03 08:25:13;;;;;;;;;;;30.70;99.90;;;;;;5109721;28;19907;-68
2022/07/03 08:27:39;;;;;;;;;;;30.90;99.90;;;;;;5107977;28;19914;-70
2022/07/03 08:30:05;;;;;;;;;;;30.90;99.90;;;;;;5112159;28;20359;-70
2022/07/03 08:32:30;;;;;;;;;;;31.00;99.90;;;;;;5110893;28;19915;-69
2022/07/03 08:34:56;;;;;;;;;;;31.10;99.90;;;;;;5109765;28;19965;-68
2022/07/03 08:37:21;;;;;;;;;;;31.10;99.90;;;;;;5114069;28;19915;-69
2022/07/03 08:39:47;;;;;;;;;;;31.00;99.90;;;;;;5112497;28;19908;-69
2022/07/03 08:42:15;;;;;;;;;;;31.10;99.90;;;;;;5110779;28;19931;-68
2022/07/03 08:44:42;;;;;;;;;;;31.30;99.90;;;;;;5103562;28;19911;-69
2022/07/03 08:47:10;;;;;;;;;;;31.40;99.90;;;;;;5110323;28;20361;-69
2022/07/03 08:49:36;;;;;;;;;;;31.60;99.90;;;;;;5111426;28;19977;-73
2022/07/03 08:52:02;;;;;;;;;;;31.60;99.90;;;;;;5107816;28;20493;-68
2022/07/03 08:54:27;;;;;;;;;;;31.30;99.90;;;;;;5114715;27;19915;-68
2022/07/03 08:56:53;;;;;;;;;;;30.80;99.90;;;;;;5110350;28;19910;-68
2022/07/03 08:59:20;;;;;;;;;;;30.30;99.90;;;;;;5113412;28;19926;-69
2022/07/03 09:01:46;;;;;;;;;;;30.00;99.90;;;;;;5108533;28;19908;-68
2022/07/03 09:04:13;;;;;;;;;;;29.90;99.90;;;;;;5113367;28;19908;-69
2022/07/03 09:06:40;;;;;;;;;;;30.00;99.90;;;;;;5100088;28;19912;-71
2022/07/03 09:09:06;;;;;;;;;;;30.00;99.90;;;;;;5111431;28;20493;-72
2022/07/03 09:11:32;;;;;;;;;;;30.00;99.90;;;;;;5113090;28;20003;-70
2022/07/03 09:13:57;;;;;;;;;;;30.00;99.90;;;;;;5112328;28;19935;-69
2022/07/03 09:16:23;;;;;;;;;;;30.10;99.90;;;;;;5109610;28;19907;-70
2022/07/03 09:18:49;;;;;;;;;;;30.00;99.90;;;;;;5112533;28;19903;-71
2022/07/03 09:21:15;;;;;;;;;;;29.70;99.90;;;;;;5112212;28;20393;-67
2022/07/03 09:23:42;;;;;;;;;;;29.60;99.90;;;;;;5111119;28;19994;-67
2022/07/03 09:26:15;;;;;;;;;;;29.60;99.90;;;;;;5112275;28;19904;-68
2022/07/03 09:28:53;;;;;;;;;;;29.50;99.90;;;;;;5111341;28;20285;-67
2022/07/03 09:31:18;;;;;;;;;;;29.70;99.90;;;;;;5112335;28;20276;-69
2022/07/03 09:33:48;;;;;;;;;;;29.70;99.90;;;;;;5108129;28;19904;-69
2022/07/03 09:36:13;;;;;;;;;;;29.80;99.90;;;;;;5107293;28;19912;-68
2022/07/03 09:38:43;;;;;;;;;;;29.70;99.90;;;;;;5093014;28;19911;-69
2022/07/03 09:41:08;;;;;;;;;;;29.60;99.90;;;;;;5109980;28;19908;-68
2022/07/03 09:43:34;;;;;;;;;;;29.60;99.90;;;;;;5108389;28;19911;-68
2022/07/03 09:46:03;;;;;;;;;;;29.60;99.90;;;;;;5111091;27;19908;-68
2022/07/03 09:48:33;;;;;;;;;;;29.40;99.90;;;;;;5114671;27;19907;-68
2022/07/03 09:51:17;;;;;;;;;;;29.30;99.90;;;;;;5110181;28;20258;-68
2022/07/03 09:53:47;;;;;;;;;;;29.20;99.90;;;;;;5109078;28;19907;-69
2022/07/03 09:56:13;;;;;;;;;;;29.10;99.90;;;;;;5109875;28;19915;-68
2022/07/03 09:58:39;;;;;;;;;;;29.30;99.90;;;;;;5104915;28;20258;-68
2022/07/03 10:01:17;;;;;;;;;;;29.30;99.90;;;;;;5111400;27;19908;-68
2022/07/03 10:03:43;;;;;;;;;;;29.40;99.90;;;;;;5113900;27;20367;-68
2022/07/03 10:06:09;;;;;;;;;;;29.50;99.90;;;;;;5113857;27;19903;-68
2022/07/03 10:08:35;;;;;;;;;;;29.50;99.90;;;;;;5100921;28;19904;-69
2022/07/03 10:11:00;;;;;;;;;;;29.50;99.90;;;;;;5102536;28;20297;-67
2022/07/03 10:13:26;;;;;;;;;;;29.60;99.90;;;;;;5098371;28;20438;-67
2022/07/03 10:15:52;;;;;;;;;;;29.70;99.90;;;;;;5102719;28;19919;-68
2022/07/03 10:18:19;;;;;;;;;;;29.80;99.90;;;;;;5097668;28;19932;-68
2022/07/03 10:20:46;;;;;;;;;;;29.80;99.90;;;;;;5107317;28;20361;-67
2022/07/03 10:23:12;;;;;;;;;;;29.60;99.90;;;;;;5109607;28;20014;-66
2022/07/03 10:25:42;;;;;;;;;;;29.50;99.90;;;;;;5090160;28;19908;-67
2022/07/03 10:28:09;;;;;;;;;;;29.50;99.90;;;;;;5107861;28;20002;-67
2022/07/03 10:30:35;;;;;;;;;;;29.50;99.90;;;;;;5109736;28;19914;-68
2022/07/03 10:33:01;;;;;;;;;;;29.50;99.90;;;;;;5099474;28;19915;-68
2022/07/03 10:35:31;;;;;;;;;;;29.60;99.90;;;;;;5101891;28;19926;-69
2022/07/03 10:38:00;;;;;;;;;;;29.70;99.90;;;;;;5106560;28;19907;-68
2022/07/03 10:46:15;;;;;;;;;;;29.70;99.90;;;;;;5099899;28;20007;-67
2022/07/03 10:48:59;;;;;;;;;;;29.60;99.90;;;;;;5108367;28;19904;-67
2022/07/03 10:51:25;;;;;;;;;;;29.40;99.90;;;;;;5103502;28;21750;-67
2022/07/03 10:54:10;;;;;;;;;;;29.50;99.90;;;;;;5108325;28;19982;-68
2022/07/03 10:56:55;;;;;;;;;;;29.60;99.90;;;;;;5103167;28;19952;-68
2022/07/03 10:59:20;;;;;;;;;;;29.50;99.90;;;;;;5110655;28;20478;-68
2022/07/03 11:01:46;;;;;;;;;;;29.50;99.90;;;;;;5105388;28;19999;-68
2022/07/03 11:04:12;;;;;;;;;;;29.30;99.90;;;;;;5104636;28;19912;-68
2022/07/03 11:06:43;;;;;;;;;;;29.40;99.90;;;;;;5107723;28;19907;-68
2022/07/03 11:09:10;;;;;;;;;;;29.60;99.90;;;;;;5105155;28;20029;-68
2022/07/03 11:14:20;;;;;;;;;;;29.90;99.90;;;;;;5102656;28;19931;-68
2022/07/03 11:16:46;;;;;;;;;;;30.10;99.90;;;;;;5104283;28;19908;-69
2022/07/03 11:19:16;;;;;;;;;;;30.20;99.90;;;;;;5107724;28;19971;-69
2022/07/03 11:21:49;;;;;;;;;;;30.40;99.90;;;;;;5106309;28;20001;-69
2022/07/03 11:24:26;;;;;;;;;;;30.50;99.90;;;;;;5111290;27;20270;-68
2022/07/03 11:27:14;;;;;;;;;;;30.70;99.90;;;;;;5118377;27;19908;-68
2022/07/03 11:29:49;;;;;;;;;;;30.70;99.90;;;;;;5121685;27;19927;-69
2022/07/03 11:32:35;;;;;;;;;;;30.60;99.90;;;;;;5114027;28;19939;-68
2022/07/03 11:35:01;;;;;;;;;;;30.50;99.90;;;;;;5111371;28;20311;-67
2022/07/03 11:37:28;;;;;;;;;;;30.40;99.90;;;;;;5113228;28;19929;-67
2022/07/03 11:39:56;;;;;;;;;;;30.40;99.90;;;;;;5107578;28;19915;-68
2022/07/03 11:42:22;;;;;;;;;;;30.40;99.90;;;;;;5113202;28;20010;-67
2022/07/03 11:44:49;;;;;;;;;;;30.40;99.90;;;;;;5118790;27;20365;-69
2022/07/03 11:47:16;;;;;;;;;;;30.30;99.90;;;;;;5117240;28;19907;-68
2022/07/03 11:49:49;;;;;;;;;;;30.30;99.90;;;;;;5114681;28;19915;-68
2022/07/03 11:52:33;;;;;;;;;;;30.40;99.90;;;;;;5113997;28;19939;-68
2022/07/03 11:54:58;;;;;;;;;;;30.30;99.90;;;;;;5112786;27;19987;-68
2022/07/03 11:57:24;;;;;;;;;;;30.30;99.90;;;;;;5117552;28;20361;-68
2022/07/03 12:00:05;;;;;;;;;;;30.40;99.90;;;;;;5119021;28;19933;-68
2022/07/03 12:02:31;;;;;;;;;;;30.40;99.90;;;;;;5111571;28;20516;-68
2022/07/03 12:05:00;;;;;;;;;;;30.50;99.90;;;;;;5117304;28;19990;-68
2022/07/03 12:07:28;;;;;;;;;;;30.40;99.90;;;;;;5115897;28;19919;-60
2022/07/03 12:09:59;;;;;;;;;;;30.10;99.90;;;;;;5108068;28;19904;-63
2022/07/03 12:12:26;;;;;;;;;;;29.90;99.90;;;;;;5108240;28;19915;-62
2022/07/03 12:14:56;;;;;;;;;;;29.90;99.90;;;;;;5114759;28;20277;-60
2022/07/03 12:17:26;;;;;;;;;;;29.80;99.90;;;;;;5115895;28;19994;-62
2022/07/03 12:19:53;;;;;;;;;;;29.70;99.90;;;;;;5111333;28;19915;-63
2022/07/03 12:22:23;;;;;;;;;;;29.50;99.90;;;;;;5117067;28;19904;-62
2022/07/03 12:25:04;;;;;;;;;;;29.60;99.90;;;;;;5116117;28;19904;-62
2022/07/03 12:27:34;;;;;;;;;;;29.50;99.90;;;;;;5110529;28;19914;-63
2022/07/03 12:30:12;;;;;;;;;;;29.70;99.90;;;;;;5107403;28;20338;-63
2022/07/03 12:32:46;;;;;;;;;;;29.90;99.90;;;;;;5107793;28;20486;-63
2022/07/03 12:35:12;;;;;;;;;;;30.10;99.90;;;;;;5110899;28;20551;-61
2022/07/03 12:37:40;;;;;;;;;;;30.40;99.90;;;;;;5111369;28;20002;-62
2022/07/03 12:40:06;;;;;;;;;;;30.50;99.90;;;;;;5111544;28;19946;-62
2022/07/03 12:42:41;;;;;;;;;;;30.40;99.90;;;;;;5094302;28;19944;-61
2022/07/03 12:45:10;;;;;;;;;;;30.30;99.90;;;;;;5091500;28;19904;-63
2022/07/03 12:47:36;;;;;;;;;;;30.50;99.90;;;;;;5097358;28;19907;-60
2022/07/03 12:50:03;;;;;;;;;;;30.20;99.90;;;;;;5111276;28;19911;-61
2022/07/03 12:52:29;;;;;;;;;;;30.10;99.90;;;;;;5111659;28;20353;-62
2022/07/03 12:54:55;;;;;;;;;;;30.00;99.90;;;;;;5112087;28;19930;-62
2022/07/03 13:00:16;;;;;;;;;;;29.90;99.90;;;;;;5092797;28;20518;-60
2022/07/03 13:02:42;;;;;;;;;;;29.70;99.90;;;;;;5094242;28;19923;-62
2022/07/03 13:05:22;;;;;;;;;;;29.50;99.90;;;;;;5110582;28;19953;-62
2022/07/03 13:07:51;;;;;;;;;;;29.50;99.90;;;;;;5110055;28;19966;-62
2022/07/03 13:10:18;;;;;;;;;;;29.60;99.90;;;;;;5105715;28;19912;-62
2022/07/03 13:12:54;;;;;;;;;;;29.70;99.90;;;;;;5107689;28;19918;-64
2022/07/03 13:15:23;;;;;;;;;;;29.60;99.90;;;;;;5112316;28;19919;-65
2022/07/03 13:17:55;;;;;;;;;;;29.80;99.90;;;;;;5110437;28;19934;-63
2022/07/03 13:20:28;;;;;;;;;;;29.80;99.90;;;;;;5105253;28;19949;-61
2022/07/03 13:22:58;;;;;;;;;;;30.00;99.90;;;;;;5108888;28;19912;-60
2022/07/03 13:25:24;;;;;;;;;;;30.20;99.90;;;;;;5111183;28;19907;-62
2022/07/03 13:27:50;;;;;;;;;;;30.40;99.90;;;;;;5106772;28;19908;-60
2022/07/03 13:30:17;;;;;;;;;;;30.40;99.90;;;;;;5093996;28;20285;-62
2022/07/03 13:32:43;;;;;;;;;;;30.40;99.90;;;;;;5101842;28;19919;-62
2022/07/03 13:35:09;;;;;;;;;;;30.30;99.90;;;;;;5108787;28;20275;-63
2022/07/03 13:37:35;;;;;;;;;;;30.00;99.90;;;;;;5104714;28;19908;-64
2022/07/03 13:40:01;;;;;;;;;;;29.80;99.90;;;;;;5111820;28;19920;-63
2022/07/03 13:42:27;;;;;;;;;;;29.80;99.90;;;;;;5088715;28;19992;-66
2022/07/03 13:44:52;;;;;;;;;;;30.10;99.90;;;;;;5105021;28;20417;-64
2022/07/03 13:47:18;;;;;;;;;;;30.20;99.90;;;;;;5111725;28;20006;-64
2022/07/03 13:49:45;;;;;;;;;;;30.10;99.90;;;;;;5091630;28;19908;-63
2022/07/03 13:52:14;;;;;;;;;;;30.00;99.90;;;;;;5110494;28;19952;-65
2022/07/03 13:54:42;;;;;;;;;;;29.70;99.90;;;;;;5106794;28;19912;-64
2022/07/03 13:57:10;;;;;;;;;;;29.90;99.90;;;;;;5105382;28;19908;-63
2022/07/03 13:59:38;;;;;;;;;;;30.00;99.90;;;;;;5110915;28;20490;-64
2022/07/03 14:02:05;;;;;;;;;;;30.10;99.90;;;;;;5110393;28;19907;-63
2022/07/03 14:04:35;;;;;;;;;;;30.00;99.90;;;;;;5110349;28;20111;-64
2022/07/03 14:07:08;;;;;;;;;;;29.70;99.90;;;;;;5088515;28;19916;-61
2022/07/03 14:09:36;;;;;;;;;;;29.70;99.90;;;;;;5106202;28;20354;-63
2022/07/03 14:12:03;;;;;;;;;;;30.00;99.90;;;;;;5091764;28;20070;-63
2022/07/03 14:14:30;;;;;;;;;;;30.10;99.90;;;;;;5108823;28;19918;-64
2022/07/03 14:16:58;;;;;;;;;;;30.10;99.90;;;;;;5104518;28;20320;-64
2022/07/03 14:19:27;;;;;;;;;;;30.40;99.90;;;;;;5103541;28;20377;-65
2022/07/03 14:21:54;;;;;;;;;;;30.50;99.90;;;;;;5112757;28;19908;-65
2022/07/03 14:24:22;;;;;;;;;;;30.50;99.90;;;;;;5108398;28;19908;-65
2022/07/03 14:32:28;;;;;;;;;;;30.40;99.90;;;;;;5112892;28;19930;-71
2022/07/03 14:34:54;;;;;;;;;;;30.20;99.90;;;;;;5106292;28;19978;-72
2022/07/03 14:37:21;;;;;;;;;;;30.20;99.90;;;;;;5111788;28;19911;-74
2022/07/03 14:39:47;;;;;;;;;;;30.20;99.90;;;;;;5108082;28;19995;-69
2022/07/03 14:42:13;;;;;;;;;;;30.20;99.90;;;;;;5100424;28;19912;-74